HIDDEN DAM (HENSLEY) (HID)

Elevation: 561' · FRESNO R basin · Operator: US Army Corps of Engineers

Provisional data, subject to change.
Query executed Wednesday at 16:53:48   clock

Select a sensor type for a plot of data.
Note: Reservoir Flows are daily averages.

Earlier

Date RES ELE    STORAGE    RES CHG    TOC STO    ABV TOC    OUTFLOW    INFLOW    PPT INC    TEMP MN    TEMP MX    WINDLEN    EVP PAN   
 FEET   AF   AF   AF   AF   CFS   CFS   INCHES   DEG F   DEG F   MILES   INCHES  
08/29/2016 478.53 19527 -210 90000 -70473 102 3 0.00 18 36 112 0.30
08/30/2016 478.21 19305 -222 90000 -70695 102 -3 0.00 17 36 109 0.30
08/31/2016 477.91 19098 -207 89286 -70188 102 5 0.00 18 35 108 0.29
09/01/2016 477.60 18885 -213 88571 -69686 102 2 0.02 17 35 93 0.28
09/02/2016 477.30 18681 -204 87857 -69176 102 6 0.00 17 35 102 0.29
09/03/2016 476.98 18465 -216 87143 -68678 100 -2 0.00 15 32 110 0.26
09/04/2016 476.63 18230 -235 86428 -68198 100 -13 0.00 12 27 103 0.23
09/05/2016 476.33 18031 -199 85714 -67683 100 6 0.00 13 30 100 0.25
09/06/2016 476.03 17832 -199 85000 -67168 100 6 0.00 17 34 107 0.28
09/07/2016 475.71 17622 -210 84286 -66664 100 2 0.00 18 37 114 0.30
09/08/2016 475.55 17518 -104 83571 -66053 38 -8 0.00 18 36 119 0.30
09/09/2016 475.51 17492 -26 82857 -65365 1 -5 0.00 18 37 100 0.28
09/10/2016 475.47 17466 -26 82143 -64677 2 -4 0.00 20 37 100 0.28
09/11/2016 475.46 17459 -7 81428 -63969 3 6 0.00 20 36 105 0.28
09/12/2016 475.47 17466 -13 80714 -63268 2 12 0.00 14 31 109 0.25
09/13/2016 475.48 17472 -13 80000 -62567 0 8 0.00 11 24 98 0.20
09/14/2016 475.49 17479 -13 79286 -61866 1 10 0.00 13 29 106 0.23
09/15/2016 475.49 17479 -- 78571 -61157 1 7 0.00 14 32 105 0.25
09/16/2016 475.47 17466 -13 77857 -60391 2 2 0.00 15 33 111 0.26
09/17/2016 475.48 17472 6 77143 -59671 2 11 0.00 17 36 103 0.27
09/18/2016 475.46 17459 -13 76428 -58969 2 2 0.00 19 38 102 0.27
09/19/2016 475.43 17440 -19 75714 -58274 2 -0 0.00 20 40 114 0.31
09/20/2016 475.42 17433 -7 75000 -57567 2 5 0.00 20 36 108 0.27
09/21/2016 475.40 17420 -13 74285 -56865 2 1 0.00 16 31 112 0.22
09/22/2016 475.38 17407 -13 73571 -56164 3 1 0.00 9 24 123 0.20
09/23/2016 475.36 17394 -13 72857 -55463 3 1 0.00 10 27 98 0.21
09/24/2016 475.34 17382 -12 72142 -54760 3 3 0.00 13 31 104 0.23
09/25/2016 475.34 17382 0 71428 -54046 3 10 0.01 16 37 108 0.27
09/26/2016 475.33 17375 -7 70714 -53339 3 6 0.00 19 37 126 0.29
09/27/2016 475.28 17343 -32 70000 -52657 2 -8 0.00 19 38 112 0.27
09/28/2016 -- -- -- -- -- -- -- -- -- -- -- --

Later | Latest

Warning! This data is preliminary and subject to revision.

Show HID Map | Plot HID Data | 1 Month HID Data | Real-Time HID Data | HID Info